Terminal Aerodrome Forecast
Issued by NWS Hastings, NE

Home | Current Version | Previous Version | Text Only | Print | Product List | Glossary On
Versions: 1 2 3 4 5 6 7 8 9 10 11 12 13 14 15 16 17 18 19 20 21 22 23 24 25 26 27 28 29 30 31 32
781
FTUS43 KGID 302328
TAFGRI
TAF
KGRI 302328Z 0100/0124 35023G31KT 4SM -RASN OVC008
     FM010700 33019G28KT 4SM -RASN OVC010
     FM010900 32020G28KT 4SM -RASN OVC010
     FM011200 31018G25KT P6SM OVC015
     FM011400 31018G27KT P6SM BKN050
     FM011500 31019G27KT P6SM SCT060=

USA.gov is the U.S. government's official web portal to all federal, state and local government web resources and services.